createdAt,value
2018-11-13T00:00:15.281Z,14.00
2018-11-13T00:02:44.206Z,14.00
2018-11-13T00:05:13.014Z,14.00
2018-11-13T00:07:42.297Z,14.00
2018-11-13T00:10:11.588Z,14.00
2018-11-13T00:12:40.673Z,14.00
2018-11-13T00:15:09.486Z,14.00
2018-11-13T00:17:38.558Z,14.00
2018-11-13T00:20:09.302Z,14.00
2018-11-13T00:22:37.998Z,14.00
2018-11-13T00:25:07.554Z,14.00
2018-11-13T00:27:36.317Z,14.00
2018-11-13T00:30:06.958Z,14.00
2018-11-13T00:32:35.761Z,14.00
2018-11-13T00:35:04.619Z,14.00
2018-11-13T00:37:33.459Z,14.00
2018-11-13T00:40:02.287Z,14.00
2018-11-13T00:42:31.159Z,14.00
2018-11-13T00:44:59.977Z,14.00
2018-11-13T00:47:28.878Z,13.90
2018-11-13T00:49:57.747Z,13.90
2018-11-13T00:52:26.554Z,13.90
2018-11-13T00:54:55.456Z,13.90
2018-11-13T00:57:24.294Z,13.90
2018-11-13T00:59:53.851Z,13.80
2018-11-13T01:02:22.667Z,13.80
2018-11-13T01:04:51.510Z,13.80
2018-11-13T01:07:20.348Z,13.80
2018-11-13T01:09:49.160Z,13.80
2018-11-13T01:12:17.974Z,13.80
2018-11-13T01:14:46.842Z,13.80
2018-11-13T01:17:15.690Z,13.80
2018-11-13T01:19:44.502Z,13.70
2018-11-13T01:22:13.323Z,13.70
2018-11-13T01:24:42.170Z,13.80
2018-11-13T01:27:10.998Z,13.80
2018-11-13T01:29:39.814Z,13.80
2018-11-13T01:32:08.636Z,13.80
2018-11-13T01:34:37.455Z,13.80
2018-11-13T01:37:06.315Z,13.80
2018-11-13T01:39:35.153Z,13.90
2018-11-13T01:42:03.978Z,13.90
2018-11-13T01:44:32.792Z,13.90
2018-11-13T01:47:01.622Z,13.90
2018-11-13T01:49:30.487Z,13.90
2018-11-13T01:51:59.274Z,13.90
2018-11-13T01:54:28.177Z,13.90
2018-11-13T01:56:56.960Z,13.90
2018-11-13T01:59:25.778Z,13.90
2018-11-13T02:01:54.618Z,13.90
2018-11-13T02:04:23.454Z,13.90
2018-11-13T02:06:52.276Z,13.90
2018-11-13T02:09:21.171Z,13.80
2018-11-13T02:11:50.642Z,13.80
2018-11-13T02:14:19.504Z,13.80
2018-11-13T02:16:48.368Z,13.80
2018-11-13T02:19:17.226Z,13.80
2018-11-13T02:21:46.127Z,13.70
2018-11-13T02:24:14.969Z,13.70
2018-11-13T02:26:43.841Z,13.70
2018-11-13T02:29:12.676Z,13.70
2018-11-13T02:31:41.510Z,13.70
2018-11-13T02:34:10.390Z,13.60
2018-11-13T02:36:39.227Z,13.60
2018-11-13T02:39:09.021Z,13.60
2018-11-13T02:41:37.873Z,13.60
2018-11-13T02:44:07.278Z,13.60
2018-11-13T02:46:36.114Z,13.60
2018-11-13T02:49:05.078Z,13.60
2018-11-13T02:51:34.589Z,13.60
2018-11-13T02:54:03.465Z,13.60
2018-11-13T02:56:33.211Z,13.60
2018-11-13T02:59:02.186Z,13.50
2018-11-13T03:04:22.090Z,13.60
2018-11-13T03:06:50.801Z,13.60
2018-11-13T03:09:19.540Z,13.60
2018-11-13T03:11:48.269Z,13.50
2018-11-13T03:14:16.981Z,13.60
2018-11-13T03:16:45.704Z,13.60
2018-11-13T03:19:14.418Z,13.60
2018-11-13T03:21:43.134Z,13.60
2018-11-13T03:24:11.857Z,13.60
2018-11-13T03:26:40.586Z,13.50
2018-11-13T03:29:09.318Z,13.50
2018-11-13T03:31:38.112Z,13.50
2018-11-13T03:34:06.937Z,13.50
2018-11-13T03:36:35.658Z,13.50
2018-11-13T03:39:06.621Z,13.40
2018-11-13T03:41:35.357Z,13.40
2018-11-13T03:44:04.069Z,13.50
2018-11-13T03:46:32.765Z,13.50
2018-11-13T03:49:01.462Z,13.50
2018-11-13T03:51:30.157Z,13.50
2018-11-13T03:53:58.871Z,13.50
2018-11-13T03:56:27.566Z,13.50
2018-11-13T03:58:56.257Z,13.50
2018-11-13T04:01:24.934Z,13.50
2018-11-13T04:03:53.629Z,13.50
2018-11-13T04:06:22.309Z,13.50
2018-11-13T04:08:50.994Z,13.50
2018-11-13T04:11:19.689Z,13.50
2018-11-13T04:13:48.394Z,13.40
2018-11-13T04:23:21.665Z,13.40
2018-11-13T04:25:50.374Z,13.20
2018-11-13T04:28:19.102Z,13.20
2018-11-13T04:30:47.835Z,13.20
2018-11-13T04:33:16.482Z,13.20
2018-11-13T04:35:45.187Z,13.30
2018-11-13T04:38:13.870Z,13.20
2018-11-13T04:40:42.545Z,13.30
2018-11-13T04:43:11.237Z,13.30
2018-11-13T04:45:39.925Z,13.30
2018-11-13T04:48:08.613Z,13.20
2018-11-13T04:50:37.318Z,13.20
2018-11-13T04:53:06.028Z,13.20
2018-11-13T04:55:34.722Z,13.20
2018-11-13T04:58:03.413Z,13.10
2018-11-13T05:00:32.116Z,13.10
2018-11-13T05:03:00.862Z,13.00
2018-11-13T05:05:29.485Z,13.00
2018-11-13T05:07:58.170Z,13.00
2018-11-13T05:10:26.858Z,13.00
2018-11-13T05:18:38.106Z,12.90
2018-11-13T05:21:06.797Z,12.80
2018-11-13T05:23:35.481Z,12.80
2018-11-13T05:26:04.283Z,12.80
2018-11-13T05:28:33.058Z,12.70
2018-11-13T05:31:01.857Z,12.70
2018-11-13T05:33:30.569Z,12.70
2018-11-13T05:35:59.257Z,12.70
2018-11-13T05:38:27.953Z,12.70
2018-11-13T05:40:56.647Z,12.70
2018-11-13T05:43:25.346Z,12.70
2018-11-13T05:45:54.061Z,12.70
2018-11-13T05:48:22.758Z,12.70
2018-11-13T05:50:51.439Z,12.70
2018-11-13T05:53:20.143Z,12.80
2018-11-13T05:55:48.830Z,12.80
2018-11-13T05:58:17.517Z,12.80
2018-11-13T06:00:46.237Z,12.70
2018-11-13T06:03:14.933Z,12.70
2018-11-13T06:05:43.637Z,12.70
2018-11-13T06:08:12.334Z,12.70
2018-11-13T06:10:41.042Z,12.60
2018-11-13T06:13:09.734Z,12.60
2018-11-13T06:15:38.421Z,12.50
2018-11-13T06:18:07.143Z,12.50
2018-11-13T06:20:35.833Z,12.50
2018-11-13T06:23:04.752Z,12.40
2018-11-13T06:25:33.412Z,12.40
2018-11-13T06:28:02.094Z,12.40
2018-11-13T06:30:30.801Z,12.40
2018-11-13T06:32:59.489Z,12.30
2018-11-13T06:35:28.189Z,12.40
2018-11-13T06:38:02.931Z,12.30
2018-11-13T06:40:31.618Z,12.30
2018-11-13T06:43:01.313Z,12.30
2018-11-13T06:45:30.014Z,12.30
2018-11-13T06:47:58.702Z,12.30
2018-11-13T06:50:35.226Z,12.30
2018-11-13T06:53:03.906Z,12.20
2018-11-13T06:55:34.616Z,12.20
2018-11-13T06:58:03.674Z,12.20
2018-11-13T07:00:32.494Z,12.30
2018-11-13T07:03:05.150Z,12.30
2018-11-13T07:05:33.848Z,12.20
2018-11-13T07:08:02.542Z,12.30
2018-11-13T07:10:44.745Z,12.20
2018-11-13T07:13:13.305Z,12.20
2018-11-13T07:15:42.317Z,12.20
2018-11-13T07:18:11.067Z,12.20
2018-11-13T07:20:39.725Z,12.20
2018-11-13T07:23:08.542Z,12.20
2018-11-13T07:25:37.271Z,12.20
2018-11-13T07:28:05.959Z,12.20
2018-11-13T07:33:31.058Z,12.20
2018-11-13T07:35:59.711Z,12.20
2018-11-13T07:38:28.402Z,12.20
2018-11-13T07:40:57.157Z,12.20
2018-11-13T07:43:39.069Z,12.20
2018-11-13T07:49:20.278Z,12.30
2018-11-13T07:51:48.994Z,12.30
2018-11-13T07:54:17.686Z,12.30
2018-11-13T07:56:46.393Z,12.30
2018-11-13T08:13:43.210Z,12.30
2018-11-13T08:16:11.898Z,12.30
2018-11-13T08:18:40.623Z,12.40
2018-11-13T08:21:09.293Z,12.40
2018-11-13T08:23:37.973Z,12.40
2018-11-13T08:26:07.195Z,12.40
2018-11-13T08:28:35.911Z,12.40
2018-11-13T08:31:09.482Z,12.40
2018-11-13T08:33:38.185Z,12.30
2018-11-13T08:36:07.411Z,12.30
2018-11-13T08:38:36.117Z,12.30
2018-11-13T08:44:03.068Z,12.30
2018-11-13T08:46:33.741Z,12.40
2018-11-13T08:49:02.453Z,12.40
2018-11-13T08:51:31.150Z,12.30
2018-11-13T08:53:59.845Z,12.30
2018-11-13T08:56:28.533Z,12.30
2018-11-13T08:58:57.283Z,12.30
2018-11-13T09:01:26.094Z,12.30
2018-11-13T09:03:55.034Z,12.30
2018-11-13T09:06:47.080Z,12.30
2018-11-13T09:09:15.786Z,12.30
2018-11-13T09:11:45.660Z,12.30
2018-11-13T09:14:14.261Z,12.20
2018-11-13T09:16:42.982Z,12.20
2018-11-13T09:19:11.759Z,12.20
2018-11-13T09:21:40.355Z,12.20
2018-11-13T09:24:09.049Z,12.20
2018-11-13T09:26:37.733Z,12.10
2018-11-13T09:29:06.413Z,12.10
2018-11-13T09:31:35.151Z,12.10
2018-11-13T09:34:04.141Z,12.10
2018-11-13T09:36:32.814Z,12.20
2018-11-13T09:39:01.501Z,12.20
2018-11-13T09:41:30.201Z,12.20
2018-11-13T09:44:08.857Z,12.20
2018-11-13T09:46:37.777Z,12.20
2018-11-13T09:49:06.649Z,12.20
2018-11-13T09:51:35.318Z,12.20
2018-11-13T09:54:08.316Z,12.30
2018-11-13T09:56:37.185Z,12.30
2018-11-13T09:59:05.879Z,12.40
2018-11-13T10:01:34.911Z,12.40
2018-11-13T10:04:14.867Z,12.50
2018-11-13T10:06:42.924Z,12.50
2018-11-13T10:09:12.796Z,12.50
2018-11-13T10:11:43.019Z,12.50
2018-11-13T10:14:12.110Z,12.50
2018-11-13T10:16:41.406Z,12.50
2018-11-13T10:19:11.026Z,12.60
2018-11-13T10:21:39.706Z,12.70
2018-11-13T10:24:09.097Z,12.70
2018-11-13T10:26:37.848Z,12.80
2018-11-13T10:29:06.596Z,12.90
2018-11-13T10:31:35.281Z,12.90
2018-11-13T10:34:03.973Z,12.80
2018-11-13T10:36:32.666Z,12.80
2018-11-13T10:39:08.224Z,12.80
2018-11-13T10:41:36.978Z,12.80
2018-11-13T10:44:05.762Z,12.70
2018-11-13T10:46:34.434Z,12.60
2018-11-13T10:49:03.213Z,12.70
2018-11-13T10:51:31.838Z,12.60
2018-11-13T10:54:00.534Z,12.60
2018-11-13T10:56:29.304Z,12.70
2018-11-13T10:58:57.985Z,12.70
2018-11-13T11:04:23.436Z,12.80
2018-11-13T11:06:52.113Z,12.80
2018-11-13T11:09:20.866Z,12.70
2018-11-13T11:12:09.867Z,12.80
2018-11-13T11:14:38.549Z,12.90
2018-11-13T11:17:07.504Z,13.00
2018-11-13T11:19:55.094Z,13.10
2018-11-13T11:22:23.782Z,13.10
2018-11-13T11:25:13.858Z,13.00
2018-11-13T11:27:42.528Z,13.00
2018-11-13T11:30:13.421Z,13.10
2018-11-13T11:32:42.401Z,13.10
2018-11-13T11:35:11.389Z,13.30
2018-11-13T11:37:40.694Z,13.40
2018-11-13T11:40:09.986Z,13.40
2018-11-13T11:42:38.977Z,13.40
2018-11-13T11:45:10.230Z,13.40
2018-11-13T11:47:40.086Z,13.40
2018-11-13T11:50:09.841Z,13.50
2018-11-13T11:52:38.740Z,13.70
2018-11-13T11:55:07.942Z,13.80
2018-11-13T11:57:36.638Z,13.90
2018-11-13T12:00:08.526Z,13.90
2018-11-13T12:02:54.945Z,13.90
2018-11-13T12:05:23.638Z,13.80
2018-11-13T12:08:03.213Z,13.70
2018-11-13T12:10:31.903Z,13.60
2018-11-13T12:13:00.586Z,13.60
2018-11-13T12:15:29.270Z,13.60
2018-11-13T12:17:57.971Z,13.50
2018-11-13T12:20:26.665Z,13.60
2018-11-13T12:22:55.460Z,13.50
2018-11-13T12:25:24.110Z,13.40
2018-11-13T12:27:52.818Z,13.30
2018-11-13T12:30:22.893Z,13.30
2018-11-13T12:32:52.094Z,13.20
2018-11-13T12:35:21.709Z,13.30
2018-11-13T12:37:50.406Z,13.40
2018-11-13T12:40:20.398Z,13.50
2018-11-13T12:42:49.508Z,13.50
2018-11-13T12:45:18.641Z,13.60
2018-11-13T12:47:47.349Z,13.60
2018-11-13T12:50:17.199Z,13.50
2018-11-13T12:52:45.881Z,13.50
2018-11-13T12:58:12.342Z,13.60
2018-11-13T13:00:41.034Z,13.60
2018-11-13T13:03:09.765Z,13.70
2018-11-13T13:05:38.421Z,13.70
2018-11-13T13:08:07.106Z,13.70
2018-11-13T13:10:35.813Z,13.80
2018-11-13T13:13:04.522Z,13.80
2018-11-13T13:15:33.221Z,13.90
2018-11-13T13:18:01.916Z,13.90
2018-11-13T13:20:30.602Z,14.00
2018-11-13T13:22:59.446Z,13.90
2018-11-13T13:25:28.151Z,13.90
2018-11-13T13:27:56.842Z,13.90
2018-11-13T13:30:26.263Z,13.80
2018-11-13T13:32:57.062Z,13.90
2018-11-13T13:35:59.765Z,13.90
2018-11-13T13:38:28.614Z,13.90
2018-11-13T13:40:58.463Z,13.90
2018-11-13T13:43:28.190Z,13.90
2018-11-13T13:45:56.886Z,13.90
2018-11-13T13:48:25.737Z,13.90
2018-11-13T13:50:54.549Z,13.90
2018-11-13T13:53:24.245Z,13.90
2018-11-13T13:55:53.141Z,13.80
2018-11-13T13:58:22.662Z,13.80
2018-11-13T14:03:50.354Z,13.80
2018-11-13T14:06:19.041Z,13.80
2018-11-13T14:08:47.741Z,13.80
2018-11-13T14:11:16.446Z,13.80
2018-11-13T14:13:54.389Z,13.80
2018-11-13T14:16:23.069Z,13.80
2018-11-13T14:18:51.783Z,13.80
2018-11-13T14:21:20.538Z,13.80
2018-11-13T14:23:49.222Z,13.70
2018-11-13T14:26:17.917Z,13.60
2018-11-13T14:28:46.915Z,13.50
2018-11-13T14:31:15.610Z,13.40
2018-11-13T14:33:44.295Z,13.40
2018-11-13T14:41:55.538Z,13.20
2018-11-13T14:44:24.265Z,13.20
2018-11-13T14:46:52.957Z,13.20
2018-11-13T14:49:21.650Z,13.20
2018-11-13T14:51:50.353Z,13.20
2018-11-13T14:54:19.052Z,13.20
2018-11-13T14:56:47.737Z,13.20
2018-11-13T14:59:16.430Z,13.20
2018-11-13T15:01:55.938Z,13.10
2018-11-13T15:04:24.658Z,13.10
2018-11-13T15:06:53.347Z,13.00
2018-11-13T15:09:22.054Z,13.00
2018-11-13T15:12:06.154Z,12.90
2018-11-13T15:14:34.865Z,13.00
2018-11-13T15:17:03.545Z,13.00
2018-11-13T15:19:32.262Z,12.90
2018-11-13T15:22:00.974Z,13.00
2018-11-13T15:24:29.710Z,13.00
2018-11-13T15:26:58.350Z,12.90
2018-11-13T15:29:27.062Z,12.90
2018-11-13T15:31:55.745Z,12.90
2018-11-13T15:34:24.494Z,12.80
2018-11-13T15:36:53.195Z,12.80
2018-11-13T15:39:21.914Z,12.80
2018-11-13T15:41:50.706Z,12.70
2018-11-13T15:44:19.490Z,12.70
2018-11-13T15:46:48.154Z,12.70
2018-11-13T15:49:16.877Z,12.60
2018-11-13T15:51:45.615Z,12.60
2018-11-13T15:54:14.255Z,12.50
2018-11-13T15:56:42.961Z,12.40
2018-11-13T15:59:16.702Z,12.30
2018-11-13T16:01:45.422Z,12.30
2018-11-13T16:04:14.117Z,12.20
2018-11-13T16:06:42.821Z,12.10
2018-11-13T16:09:11.531Z,12.00
2018-11-13T16:11:40.218Z,12.00
2018-11-13T16:14:08.913Z,11.90
2018-11-13T16:16:37.654Z,11.90
2018-11-13T16:19:06.337Z,11.90
2018-11-13T16:21:35.064Z,11.80
2018-11-13T16:24:03.798Z,11.80
2018-11-13T16:26:32.477Z,11.70
2018-11-13T16:29:01.204Z,11.70
2018-11-13T16:31:30.057Z,11.70
2018-11-13T16:33:58.729Z,11.60
2018-11-13T16:36:27.650Z,11.60
2018-11-13T16:38:56.141Z,11.50
2018-11-13T16:41:24.861Z,11.50
2018-11-13T16:43:53.517Z,11.50
2018-11-13T16:46:22.281Z,11.50
2018-11-13T16:48:50.957Z,11.50
2018-11-13T16:51:29.497Z,11.40
2018-11-13T16:54:02.594Z,11.40
2018-11-13T16:56:34.110Z,11.40
2018-11-13T16:59:02.797Z,11.30
2018-11-13T17:01:31.502Z,11.30
2018-11-13T17:04:00.401Z,11.30
2018-11-13T17:06:29.116Z,11.20
2018-11-13T17:08:57.792Z,11.20
2018-11-13T17:11:26.529Z,11.10
2018-11-13T17:14:00.211Z,11.00
2018-11-13T17:16:28.955Z,11.00
2018-11-13T17:18:57.585Z,11.00
2018-11-13T17:21:26.275Z,10.90
2018-11-13T17:23:54.978Z,10.80
2018-11-13T17:26:23.666Z,10.80
2018-11-13T17:28:52.354Z,10.80
2018-11-13T17:31:21.129Z,10.70
2018-11-13T17:33:49.781Z,10.70
2018-11-13T17:39:31.145Z,10.70
2018-11-13T17:41:59.850Z,10.70
2018-11-13T17:44:30.384Z,10.70
2018-11-13T17:46:57.263Z,10.60
2018-11-13T17:49:25.945Z,10.60
2018-11-13T17:54:51.966Z,10.60
2018-11-13T17:57:20.662Z,10.60
2018-11-13T17:59:50.422Z,10.50
2018-11-13T18:02:23.236Z,10.50
2018-11-13T18:04:51.943Z,10.50
2018-11-13T18:07:20.681Z,10.50
2018-11-13T18:09:49.340Z,10.40
2018-11-13T18:12:18.032Z,10.40
2018-11-13T18:14:46.793Z,10.40
2018-11-13T18:17:15.413Z,10.40
2018-11-13T18:19:44.119Z,10.30
2018-11-13T18:22:12.913Z,10.40
2018-11-13T18:24:41.609Z,10.30
2018-11-13T18:27:10.294Z,10.30
2018-11-13T18:29:38.985Z,10.30
2018-11-13T18:32:07.702Z,10.30
2018-11-13T18:34:36.394Z,10.20
2018-11-13T18:37:05.559Z,10.20
2018-11-13T18:39:34.265Z,10.20
2018-11-13T18:42:02.978Z,10.20
2018-11-13T18:44:38.493Z,10.20
2018-11-13T18:47:07.209Z,10.20
2018-11-13T18:49:35.894Z,10.20
2018-11-13T18:52:04.801Z,10.10
2018-11-13T18:54:33.515Z,10.10
2018-11-13T18:57:02.206Z,10.10
2018-11-13T18:59:31.087Z,10.10
2018-11-13T19:02:10.561Z,10.00
2018-11-13T19:04:39.282Z,10.00
2018-11-13T19:07:08.562Z,10.00
2018-11-13T19:09:37.250Z,10.00
2018-11-13T19:12:06.317Z,10.00
2018-11-13T19:14:35.346Z,10.00
2018-11-13T19:17:04.157Z,9.90
2018-11-13T19:19:32.799Z,9.90
2018-11-13T19:22:05.114Z,9.90
2018-11-13T19:24:45.888Z,9.80
2018-11-13T19:27:15.085Z,9.80
2018-11-13T19:29:43.931Z,9.80
2018-11-13T19:32:12.634Z,9.80
2018-11-13T19:34:41.314Z,9.80
2018-11-13T19:37:10.106Z,9.80
2018-11-13T19:39:38.845Z,9.70
2018-11-13T19:42:07.254Z,9.70
2018-11-13T19:44:36.309Z,9.70
2018-11-13T19:47:04.736Z,9.70
2018-11-13T19:49:33.842Z,9.70
2018-11-13T19:52:02.128Z,9.70
2018-11-13T19:54:30.854Z,9.60
2018-11-13T19:56:59.575Z,9.60
2018-11-13T19:59:28.281Z,9.60
2018-11-13T20:01:56.978Z,9.60
2018-11-13T20:07:16.838Z,9.60
2018-11-13T20:09:45.574Z,9.60
2018-11-13T20:12:14.257Z,9.50
2018-11-13T20:14:42.954Z,9.50
2018-11-13T20:17:11.670Z,9.50
2018-11-13T20:19:40.606Z,9.40
2018-11-13T20:22:09.306Z,9.40
2018-11-13T20:24:57.154Z,9.40
2018-11-13T20:27:25.878Z,9.30
2018-11-13T20:29:54.589Z,9.30
2018-11-13T20:32:23.274Z,9.30
2018-11-13T20:34:52.006Z,9.20
2018-11-13T20:37:20.749Z,9.20
2018-11-13T20:40:01.246Z,9.20
2018-11-13T20:42:29.967Z,9.20
2018-11-13T20:44:58.713Z,9.10
2018-11-13T20:47:29.618Z,9.10
2018-11-13T20:49:59.037Z,9.00
2018-11-13T20:52:28.187Z,9.00
2018-11-13T20:54:57.498Z,8.90
2018-11-13T20:57:26.210Z,8.90
2018-11-13T20:59:54.900Z,8.90
2018-11-13T21:02:23.642Z,8.90
2018-11-13T21:04:52.277Z,8.90
2018-11-13T21:07:25.997Z,8.80
2018-11-13T21:09:54.714Z,8.80
2018-11-13T21:12:23.405Z,8.80
2018-11-13T21:14:52.242Z,8.80
2018-11-13T21:17:21.117Z,8.80
2018-11-13T21:19:49.832Z,8.80
2018-11-13T21:22:18.401Z,8.70
2018-11-13T21:24:47.093Z,8.70
2018-11-13T21:27:15.822Z,8.70
2018-11-13T21:29:52.456Z,8.70
2018-11-13T21:32:21.122Z,8.60
2018-11-13T21:34:49.806Z,8.60
2018-11-13T21:37:18.495Z,8.60
2018-11-13T21:39:47.190Z,8.50
2018-11-13T21:42:15.881Z,8.50
2018-11-13T21:44:44.599Z,8.50
2018-11-13T21:47:13.290Z,8.50
2018-11-13T21:49:41.976Z,8.50
2018-11-13T21:52:10.669Z,8.50
2018-11-13T21:54:39.357Z,8.40
2018-11-13T21:57:08.046Z,8.40
2018-11-13T21:59:36.738Z,8.40
2018-11-13T22:02:05.426Z,8.40
2018-11-13T22:04:45.438Z,8.40
2018-11-13T22:07:14.074Z,8.40
2018-11-13T22:09:43.039Z,8.40
2018-11-13T22:12:11.748Z,8.40
2018-11-13T22:14:40.439Z,8.40
2018-11-13T22:17:09.119Z,8.40
2018-11-13T22:19:37.906Z,8.40
2018-11-13T22:22:06.650Z,8.40
2018-11-13T22:24:35.337Z,8.40
2018-11-13T22:27:04.084Z,8.40
2018-11-13T22:29:45.081Z,8.40
2018-11-13T22:32:13.790Z,8.30
2018-11-13T22:34:42.474Z,8.30
2018-11-13T22:37:11.153Z,8.30
2018-11-13T22:39:39.893Z,8.40
2018-11-13T22:42:08.550Z,8.40
2018-11-13T22:44:37.257Z,8.30
2018-11-13T22:47:05.986Z,8.30
2018-11-13T22:49:39.666Z,8.30
2018-11-13T22:52:08.354Z,8.30
2018-11-13T22:54:37.068Z,8.30
2018-11-13T22:57:05.746Z,8.30
2018-11-13T22:59:34.440Z,8.30
2018-11-13T23:02:03.162Z,8.30
2018-11-13T23:04:31.856Z,8.30
2018-11-13T23:07:00.545Z,8.30
2018-11-13T23:09:44.120Z,8.20
2018-11-13T23:12:12.798Z,8.20
2018-11-13T23:14:41.490Z,8.20
2018-11-13T23:17:10.178Z,8.10
2018-11-13T23:19:38.866Z,8.10
2018-11-13T23:22:07.557Z,8.00
2018-11-13T23:24:36.248Z,8.00
2018-11-13T23:27:05.091Z,8.00
2018-11-13T23:29:33.761Z,8.00
2018-11-13T23:32:02.781Z,7.90
2018-11-13T23:34:31.242Z,7.90
2018-11-13T23:36:59.875Z,7.90
2018-11-13T23:39:28.563Z,7.90
2018-11-13T23:41:57.264Z,7.90
2018-11-13T23:44:26.055Z,7.80
2018-11-13T23:46:54.698Z,7.80
2018-11-13T23:49:23.431Z,7.80
2018-11-13T23:51:52.088Z,7.80
2018-11-13T23:54:20.801Z,7.70
2018-11-13T23:56:49.490Z,7.70
2018-11-13T23:59:18.174Z,7.70
